Time;durP1;ratioP1;P1;durP2;ratioP2;P2;SDS_P1;SDS_P2;PMS_P1;PMS_P2;Temp;Humidity;BMP_temperature;BMP_pressure;BME280_temperature;BME280_humidity;BME280_pressure;Samples;Min_cycle;Max_cycle;Signal;HPM_P1;HPM_P2
2021/01/19 00:04:46;;;;;;;161.67;65.30;;;;;;;-3.18;59.61;99216.98;259214;1105;115217;-73
2021/01/19 00:09:48;;;;;;;164.63;69.20;;;;;;;-3.20;59.63;99210.91;257342;1105;115174;-70
2021/01/19 00:14:51;;;;;;;163.65;68.40;;;;;;;-3.20;59.84;99214.37;259576;1105;115109;-70
2021/01/19 00:19:53;;;;;;;174.60;73.77;;;;;;;-3.16;60.06;99208.30;258843;1105;115185;-71
2021/01/19 00:24:55;;;;;;;184.48;70.55;;;;;;;-3.18;59.82;99206.57;259088;1105;115028;-69
2021/01/19 00:29:57;;;;;;;182.30;72.50;;;;;;;-3.22;60.07;99215.27;259416;1105;115232;-69
2021/01/19 00:35:00;;;;;;;174.85;72.03;;;;;;;-3.24;60.58;99206.59;259379;1105;115249;-69
2021/01/19 00:40:02;;;;;;;186.13;76.87;;;;;;;-3.22;60.75;99200.52;259259;1106;114767;-70
2021/01/19 00:45:05;;;;;;;190.63;77.60;;;;;;;-3.13;60.70;99205.66;259266;1106;114966;-69
2021/01/19 00:50:08;;;;;;;188.93;79.90;;;;;;;-3.08;60.52;99205.66;259392;1106;116226;-70
2021/01/19 00:55:13;;;;;;;184.52;76.47;;;;;;;-3.01;60.61;99194.34;259327;1105;115170;-69
2021/01/19 01:00:17;;;;;;;197.17;79.63;;;;;;;-2.96;60.63;99181.30;258060;1105;115282;-70
2021/01/19 01:05:20;;;;;;;193.27;79.37;;;;;;;-2.96;60.63;99176.94;257503;1105;114929;-69
2021/01/19 01:10:23;;;;;;;191.97;78.53;;;;;;;-2.92;60.92;99167.38;258537;1105;115425;-71
2021/01/19 01:15:34;;;;;;;174.12;72.82;;;;;;;-2.89;61.43;99169.97;259348;1105;114948;-71
2021/01/19 01:20:37;;;;;;;166.53;70.22;;;;;;;-2.90;61.47;99171.71;259028;1105;115180;-71
2021/01/19 01:25:41;;;;;;;170.02;71.25;;;;;;;-2.90;61.23;99155.23;259295;1105;115198;-73
2021/01/19 01:30:43;;;;;;;162.67;65.97;;;;;;;-2.90;61.72;99147.41;259175;1106;115508;-71
2021/01/19 01:35:45;;;;;;;151.80;62.23;;;;;;;-2.87;61.72;99142.20;259511;1105;115084;-71
2021/01/19 01:40:51;;;;;;;168.10;69.85;;;;;;;-2.86;61.35;99133.50;259287;1105;116044;-74
2021/01/19 01:45:54;;;;;;;163.93;71.60;;;;;;;-2.84;61.10;99123.95;259425;1105;114852;-73
2021/01/19 01:50:57;;;;;;;173.20;71.85;;;;;;;-2.86;61.18;99115.27;259240;1106;114958;-74
2021/01/19 01:56:02;;;;;;;176.40;73.23;;;;;;;-2.86;62.04;99108.31;258122;1105;115038;-74
2021/01/19 02:01:06;;;;;;;169.35;71.40;;;;;;;-2.82;61.81;99114.37;258522;1105;115109;-74
2021/01/19 02:06:14;;;;;;;169.32;69.77;;;;;;;-2.80;61.92;99117.84;258690;1109;115344;-74
2021/01/19 02:11:38;;;;;;;164.10;66.50;;;;;;;-2.76;61.56;99105.66;258941;1105;115117;-74
2021/01/19 02:16:59;;;;;;;148.05;64.15;;;;;;;-2.75;61.55;99107.38;259244;1105;115136;-74
2021/01/19 02:22:09;;;;;;;159.77;68.23;;;;;;;-2.74;61.91;99091.76;258506;1105;115113;-74
2021/01/19 02:27:18;;;;;;;156.65;64.67;;;;;;;-2.73;62.46;99097.83;259354;1105;114969;-73
2021/01/19 02:32:32;;;;;;;155.52;64.92;;;;;;;-2.75;62.39;99090.04;258884;1105;116332;-73
2021/01/19 02:37:47;;;;;;;;;;;;;;;-2.79;61.71;99093.52;259257;1105;115094;-73
2021/01/19 02:43:10;;;;;;;158.82;67.17;;;;;;;-2.75;62.40;99083.94;259480;1105;102418;-71
2021/01/19 02:48:16;;;;;;;161.87;65.27;;;;;;;-2.70;62.14;99083.04;259261;1105;115404;-70
2021/01/19 02:53:19;;;;;;;155.03;65.90;;;;;;;-2.64;62.88;99072.58;259282;1106;115371;-70
2021/01/19 02:58:58;;;;;;;155.32;64.27;;;;;;;-2.59;63.09;99074.27;259287;1105;114945;-70
2021/01/19 03:04:02;;;;;;;151.12;65.10;;;;;;;-2.56;62.67;99058.62;259300;1105;115251;-70
2021/01/19 03:09:06;;;;;;;157.90;66.80;;;;;;;-2.59;63.04;99059.50;259279;1109;115112;-70
2021/01/19 03:14:11;;;;;;;137.80;60.70;;;;;;;-2.53;63.11;99056.84;259308;1109;115467;-70
2021/01/19 03:19:20;;;;;;;147.82;59.10;;;;;;;-2.48;63.42;99051.58;259262;1106;115244;-70
2021/01/19 03:24:22;;;;;;;129.53;54.73;;;;;;;-2.43;62.47;99045.46;259210;1105;115208;-70
2021/01/19 03:29:25;;;;;;;135.13;57.33;;;;;;;-2.42;63.86;99041.97;259315;1106;115047;-70
2021/01/19 03:34:28;;;;;;;133.10;58.15;;;;;;;-2.39;63.50;99030.66;259400;1108;114981;-70
2021/01/19 03:39:31;;;;;;;123.93;51.10;;;;;;;-2.34;63.16;99023.67;259592;1105;114963;-70
2021/01/19 03:44:33;;;;;;;141.40;58.15;;;;;;;-2.28;63.86;99026.19;259409;1105;115045;-72
2021/01/19 03:49:35;;;;;;;130.85;53.63;;;;;;;-2.25;63.10;99026.16;258591;1105;115406;-72
2021/01/19 03:54:37;;;;;;;123.20;53.40;;;;;;;-2.19;63.50;99020.03;259356;1105;115644;-71
2021/01/19 03:59:40;;;;;;;114.13;50.40;;;;;;;-2.16;63.94;99018.25;257641;1105;115367;-71
2021/01/19 04:04:43;;;;;;;124.57;53.43;;;;;;;-2.12;64.27;99018.22;259467;1105;115498;-70
2021/01/19 04:09:45;;;;;;;113.65;51.15;;;;;;;-2.04;63.54;99016.37;259315;1108;115273;-71
2021/01/19 04:14:47;;;;;;;118.45;49.42;;;;;;;-1.98;64.46;99016.30;259603;1105;115291;-73
2021/01/19 04:19:50;;;;;;;125.30;52.83;;;;;;;-1.92;63.59;99021.45;259549;1105;114919;-72
2021/01/19 04:24:52;;;;;;;107.47;46.40;;;;;;;-1.82;64.11;99014.38;259323;1105;115259;-71
2021/01/19 04:29:54;;;;;;;101.17;46.17;;;;;;;-1.75;65.21;99016.89;259293;1106;115346;-70
2021/01/19 04:34:56;;;;;;;108.00;47.58;;;;;;;-1.66;64.70;99008.09;259315;1106;115080;-70
2021/01/19 04:39:59;;;;;;;108.92;45.10;;;;;;;-1.57;65.04;99017.52;259399;1105;114835;-69
2021/01/19 04:45:07;;;;;;;100.33;44.37;;;;;;;-1.47;64.17;99008.68;259434;1105;115392;-71
2021/01/19 04:50:14;;;;;;;99.97;43.80;;;;;;;-1.36;65.41;99011.13;258877;1105;116042;-69
2021/01/19 04:55:22;;;;;;;95.80;43.57;;;;;;;-1.29;65.75;99011.05;259218;1106;115457;-70
2021/01/19 05:00:35;;;;;;;102.40;44.97;;;;;;;-1.32;65.07;99013.70;258027;1106;115229;-70
2021/01/19 05:05:38;;;;;;;103.32;46.92;;;;;;;-1.30;64.58;99014.52;259312;1105;115925;-70
2021/01/19 05:10:41;;;;;;;89.33;41.57;;;;;;;-1.25;64.54;99007.50;259288;1106;115536;-70
2021/01/19 05:15:47;;;;;;;104.78;43.35;;;;;;;-1.18;65.92;99010.02;259326;1105;114577;-70
2021/01/19 05:20:50;;;;;;;110.47;47.43;;;;;;;-1.11;66.08;99011.66;259244;1105;115071;-70
2021/01/19 05:25:54;;;;;;;97.62;45.43;;;;;;;-1.02;65.64;99014.98;258450;1105;115489;-70
2021/01/19 05:30:57;;;;;;;72.32;34.30;;;;;;;-0.89;65.21;99009.55;259187;1106;115117;-71
2021/01/19 05:36:31;;;;;;;111.25;48.40;;;;;;;-0.82;66.18;99004.19;257606;1106;115352;-69
2021/01/19 05:41:40;;;;;;;92.90;44.60;;;;;;;-0.73;66.12;99009.27;259323;1106;114866;-71
2021/01/19 05:46:48;;;;;;;118.57;50.33;;;;;;;-0.65;65.23;99005.66;259391;1105;114526;-71
2021/01/19 05:51:57;;;;;;;111.47;50.38;;;;;;;-0.65;65.51;99005.66;259270;1105;114806;-71
2021/01/19 05:57:06;;;;;;;103.67;48.97;;;;;;;-0.58;65.30;99005.55;259290;1105;115372;-71
2021/01/19 06:02:10;;;;;;;107.40;48.27;;;;;;;-0.51;66.73;99006.27;259318;1105;115017;-72
2021/01/19 06:07:13;;;;;;;99.92;45.63;;;;;;;-0.51;66.04;99003.66;258478;1105;115284;-71
2021/01/19 06:12:18;;;;;;;109.73;48.87;;;;;;;-0.44;66.16;99000.06;259012;1105;115377;-71
2021/01/19 06:17:21;;;;;;;;;;;;;;;-0.39;66.21;99003.45;258524;1108;115458;-72
2021/01/19 06:22:27;;;;;;;108.70;49.45;;;;;;;-0.42;66.70;98997.41;259290;1105;102092;-71
2021/01/19 06:27:32;;;;;;;92.03;46.37;;;;;;;-0.38;66.15;98992.09;259080;1109;115709;-71
2021/01/19 06:32:46;;;;;;;95.03;43.63;;;;;;;-0.28;67.33;98996.25;259520;1105;114943;-71
2021/01/19 06:37:51;;;;;;;95.20;43.93;;;;;;;-0.18;66.90;99002.17;257899;1105;115134;-74
2021/01/19 06:43:02;;;;;;;;;;;;;;;-0.11;67.40;98998.55;258431;1105;115176;-71
2021/01/19 06:48:06;;;;;;;84.52;40.98;;;;;;;0.00;67.95;98995.73;259538;1105;102289;-70
2021/01/19 06:53:22;;;;;;;85.90;39.60;;;;;;;0.12;67.09;98989.38;259358;1105;114929;-71
2021/01/19 06:58:43;;;;;;;;;;;;;;;0.15;67.04;98992.80;258923;1105;114657;-70
2021/01/19 07:03:46;;;;;;;87.07;41.77;;;;;;;0.21;67.20;98997.91;259561;1105;102610;-73
2021/01/19 07:09:01;;;;;;;84.62;40.98;;;;;;;0.31;67.16;98992.48;258635;1105;114652;-72
2021/01/19 07:14:14;;;;;;;83.82;40.80;;;;;;;0.40;67.35;99003.59;259595;1106;114782;-72
2021/01/19 07:19:17;;;;;;;79.90;37.93;;;;;;;0.47;67.88;98999.94;256898;1105;114584;-73
2021/01/19 07:24:24;;;;;;;87.05;42.35;;;;;;;0.57;67.61;99003.22;259325;1105;114929;-73
2021/01/19 07:29:27;;;;;;;81.17;38.43;;;;;;;0.62;67.42;99000.52;259291;1105;114569;-74
2021/01/19 07:34:30;;;;;;;79.75;40.60;;;;;;;0.62;68.18;98995.29;259414;1105;114830;-73
2021/01/19 07:39:34;;;;;;;81.45;38.42;;;;;;;0.73;68.32;98995.89;258293;1105;114910;-75
2021/01/19 07:44:36;;;;;;;74.77;38.33;;;;;;;0.78;68.30;99001.02;259209;1105;114684;-74
2021/01/19 07:49:46;;;;;;;81.32;37.45;;;;;;;0.80;68.42;98997.47;259271;1105;114593;-74
2021/01/19 07:54:48;;;;;;;80.50;38.10;;;;;;;0.88;67.97;98994.66;259343;1105;114683;-74
2021/01/19 07:59:51;;;;;;;73.97;39.63;;;;;;;0.99;68.36;98986.58;258441;1105;114871;-74
2021/01/19 08:05:06;;;;;;;76.90;36.70;;;;;;;1.10;68.61;98980.16;259293;1105;114688;-73
2021/01/19 08:10:20;;;;;;;71.70;33.60;;;;;;;1.23;68.18;98972.86;259360;1105;115029;-73
2021/01/19 08:15:28;;;;;;;68.17;34.70;;;;;;;1.29;68.63;98972.70;259259;1108;114397;-73
2021/01/19 08:20:32;;;;;;;68.60;36.33;;;;;;;1.36;68.71;98970.79;257640;1109;115059;-72
2021/01/19 08:25:35;;;;;;;74.22;35.52;;;;;;;1.46;68.32;98968.77;259227;1106;114739;-72
2021/01/19 08:30:40;;;;;;;66.80;35.30;;;;;;;1.49;68.66;98963.44;257344;1105;115351;-72
2021/01/19 08:35:44;;;;;;;67.00;32.90;;;;;;;1.55;69.04;98973.77;259132;1106;114717;-72
2021/01/19 08:40:47;;;;;;;71.70;34.80;;;;;;;1.58;69.01;98968.45;259476;1105;114876;-73
2021/01/19 08:45:49;;;;;;;64.40;33.93;;;;;;;1.60;68.49;98970.13;259220;1105;114751;-73
2021/01/19 08:50:51;;;;;;;63.47;31.17;;;;;;;1.70;69.32;98977.73;258770;1105;114744;-73
2021/01/19 08:55:54;;;;;;;52.43;28.65;;;;;;;1.77;69.16;98974.07;259425;1105;114683;-72
2021/01/19 09:01:03;;;;;;;44.23;22.27;;;;;;;1.87;69.06;98981.64;259280;1105;115015;-72
2021/01/19 09:06:07;;;;;;;39.00;18.35;;;;;;;2.01;69.33;98972.52;259429;1106;114361;-72
2021/01/19 09:11:12;;;;;;;32.70;16.80;;;;;;;2.12;69.27;98981.80;259239;1106;115289;-72
2021/01/19 09:16:23;;;;;;;32.30;17.98;;;;;;;2.23;69.34;98972.74;259288;1105;114738;-73
2021/01/19 09:21:27;;;;;;;24.00;13.68;;;;;;;2.31;69.25;98975.99;259501;1105;114909;-73
2021/01/19 09:26:35;;;;;;;29.23;16.53;;;;;;;2.32;69.15;98981.22;258035;1105;114934;-74
2021/01/19 09:31:38;;;;;;;29.70;15.68;;;;;;;2.45;69.29;98988.74;259289;1106;116242;-74
2021/01/19 09:36:42;;;;;;;23.57;14.20;;;;;;;2.49;69.13;98985.97;259124;1106;114720;-75
2021/01/19 09:41:44;;;;;;;26.33;13.75;;;;;;;2.59;69.32;98982.16;259185;1105;115180;-75
2021/01/19 09:46:52;;;;;;;28.47;15.38;;;;;;;2.63;69.19;98979.44;259454;1105;114753;-75
2021/01/19 09:51:55;;;;;;;25.53;13.37;;;;;;;2.62;69.16;98973.33;259132;1105;114792;-74
2021/01/19 09:56:59;;;;;;;24.90;13.55;;;;;;;2.65;68.79;98982.86;259304;1105;115962;-75
2021/01/19 10:02:01;;;;;;;25.43;14.30;;;;;;;2.72;69.21;98976.53;259206;1106;114805;-76
2021/01/19 10:07:06;;;;;;;26.55;14.45;;;;;;;2.67;68.68;98967.92;259403;1106;115079;-76
2021/01/19 10:12:09;;;;;;;25.27;15.00;;;;;;;2.68;69.32;98957.34;259236;1105;114860;-74
2021/01/19 10:17:11;;;;;;;29.17;14.80;;;;;;;2.67;69.04;98957.41;259259;1106;114821;-77
2021/01/19 10:22:15;;;;;;;26.07;14.70;;;;;;;2.64;69.26;98954.88;259112;1109;114939;-77
2021/01/19 10:27:18;;;;;;;26.17;15.00;;;;;;;2.67;69.46;98954.78;259227;1105;114841;-76
2021/01/19 10:32:21;;;;;;;26.30;14.05;;;;;;;2.74;69.52;98951.05;259344;1105;114698;-76
2021/01/19 10:37:23;;;;;;;25.90;13.68;;;;;;;2.81;69.43;98937.66;259260;1106;114833;-75
2021/01/19 10:42:33;;;;;;;26.17;15.50;;;;;;;2.87;69.70;98928.73;259308;1105;114832;-75
2021/01/19 10:47:44;;;;;;;34.13;15.90;;;;;;;2.93;69.86;98928.53;259285;1105;114904;-75
2021/01/19 10:52:57;;;;;;;28.97;14.70;;;;;;;2.93;69.56;98920.65;259234;1105;114727;-76
2021/01/19 10:58:02;;;;;;;26.70;15.47;;;;;;;2.95;69.51;98912.70;259326;1105;114760;-75
2021/01/19 11:03:04;;;;;;;26.37;14.47;;;;;;;3.01;69.36;98907.24;259172;1105;114734;-73
2021/01/19 11:08:07;;;;;;;27.03;14.03;;;;;;;2.98;69.28;98910.82;259232;1105;115133;-73
2021/01/19 11:13:09;;;;;;;31.07;16.00;;;;;;;2.95;69.38;98913.55;259456;1105;115012;-73
2021/01/19 11:18:12;;;;;;;26.60;15.63;;;;;;;2.97;69.29;98900.38;259381;1105;114802;-73
2021/01/19 11:23:14;;;;;;;30.52;14.13;;;;;;;2.89;69.29;98890.13;258851;1105;114896;-74
2021/01/19 11:28:17;;;;;;;32.40;17.20;;;;;;;2.84;69.45;98894.66;259194;1105;114884;-75
2021/01/19 11:33:19;;;;;;;27.50;15.50;;;;;;;2.86;69.43;98886.74;259169;1109;115265;-75
2021/01/19 11:38:22;;;;;;;27.73;14.80;;;;;;;2.90;69.50;98878.70;259122;1109;115284;-75
2021/01/19 11:43:25;;;;;;;28.40;16.10;;;;;;;2.97;69.78;98876.72;259219;1106;114866;-74
2021/01/19 11:48:32;;;;;;;25.10;15.07;;;;;;;3.01;69.59;98867.81;257882;1109;114716;-73
2021/01/19 11:53:35;;;;;;;27.52;15.13;;;;;;;3.04;69.59;98865.08;259170;1105;114801;-73
2021/01/19 11:58:37;;;;;;;28.33;14.87;;;;;;;2.99;69.45;98870.51;259194;1105;114854;-73
2021/01/19 12:03:39;;;;;;;29.07;14.73;;;;;;;2.99;69.36;98865.25;259233;1105;114950;-73
2021/01/19 12:08:47;;;;;;;23.43;14.03;;;;;;;3.01;69.71;98849.41;259306;1105;114794;-73
2021/01/19 12:13:49;;;;;;;25.50;14.07;;;;;;;3.06;69.75;98850.13;259183;1105;114806;-73
2021/01/19 12:18:51;;;;;;;28.60;14.47;;;;;;;3.14;69.81;98834.08;259216;1106;115013;-73
2021/01/19 12:23:57;;;;;;;28.50;15.30;;;;;;;3.21;69.15;98831.17;259382;1106;114969;-73
2021/01/19 12:29:00;;;;;;;24.20;14.60;;;;;;;3.28;69.29;98831.81;259295;1105;114802;-74
2021/01/19 12:34:02;;;;;;;29.47;15.57;;;;;;;3.33;69.17;98827.26;259354;1106;114735;-74
2021/01/19 12:39:04;;;;;;;28.70;14.97;;;;;;;3.33;69.49;98811.48;258820;1108;115544;-74
2021/01/19 12:44:07;;;;;;;29.92;16.07;;;;;;;3.36;69.59;98811.34;259294;1105;114837;-74
2021/01/19 12:49:09;;;;;;;29.70;14.77;;;;;;;3.43;69.01;98798.82;258163;1105;114837;-74
2021/01/19 12:54:12;;;;;;;26.87;14.70;;;;;;;3.45;69.30;98787.34;259241;1108;114976;-75
2021/01/19 12:59:15;;;;;;;29.67;14.63;;;;;;;3.52;69.34;98788.81;257048;1105;118215;-74
2021/01/19 13:04:18;;;;;;;27.00;14.97;;;;;;;3.62;69.15;98780.59;259178;1109;114807;-76
2021/01/19 13:09:20;;;;;;;27.62;14.78;;;;;;;3.67;68.37;98783.89;258700;1105;114756;-75
2021/01/19 13:14:22;;;;;;;29.80;15.63;;;;;;;3.73;68.65;98787.14;259317;1105;114898;-75
2021/01/19 13:19:25;;;;;;;30.07;13.70;;;;;;;3.76;68.09;98788.80;259258;1108;114885;-75
2021/01/19 13:24:28;;;;;;;27.37;14.23;;;;;;;3.79;68.87;98778.16;259267;1105;114742;-75
2021/01/19 13:29:30;;;;;;;29.67;15.67;;;;;;;3.84;68.24;98772.70;259360;1105;114967;-75
2021/01/19 13:34:32;;;;;;;25.55;14.68;;;;;;;3.85;69.08;98775.30;259257;1105;114712;-75
2021/01/19 13:39:35;;;;;;;25.00;14.03;;;;;;;3.85;68.42;98771.81;259249;1106;114781;-74
2021/01/19 13:44:38;;;;;;;26.30;15.68;;;;;;;3.87;68.14;98769.96;259247;1105;114948;-75
2021/01/19 13:49:41;;;;;;;26.70;15.20;;;;;;;3.87;68.10;98764.70;259340;1105;114840;-75
2021/01/19 13:54:47;;;;;;;27.87;15.60;;;;;;;3.88;68.62;98756.76;259207;1106;115097;-75
2021/01/19 13:59:49;;;;;;;34.55;16.55;;;;;;;3.86;67.58;98750.69;259467;1105;114901;-77
2021/01/19 14:04:51;;;;;;;28.40;16.37;;;;;;;3.91;68.12;98742.63;259206;1105;115244;-74
2021/01/19 14:09:53;;;;;;;32.08;16.25;;;;;;;4.00;68.60;98739.60;259263;1105;114945;-75
2021/01/19 14:14:56;;;;;;;27.07;16.02;;;;;;;4.10;68.00;98740.94;259338;1105;115539;-75
2021/01/19 14:19:59;;;;;;;28.17;15.03;;;;;;;4.10;67.40;98735.67;259375;1105;114967;-75
2021/01/19 14:25:02;;;;;;;24.98;13.55;;;;;;;4.08;67.89;98732.27;259339;1105;115300;-75
2021/01/19 14:30:07;;;;;;;22.80;13.37;;;;;;;4.10;67.16;98734.83;259309;1105;115879;-76
2021/01/19 14:35:10;;;;;;;20.00;12.18;;;;;;;4.05;66.76;98718.38;259187;1105;114909;-76
2021/01/19 14:40:13;;;;;;;21.50;11.97;;;;;;;4.00;67.53;98711.49;259202;1109;114390;-74
2021/01/19 14:45:15;;;;;;;21.67;11.33;;;;;;;3.97;67.01;98706.38;259207;1105;114833;-75
2021/01/19 14:50:17;;;;;;;19.15;11.78;;;;;;;3.93;66.80;98702.13;259246;1105;114834;-75
2021/01/19 14:55:19;;;;;;;22.67;12.13;;;;;;;3.91;66.85;98701.36;259268;1105;115200;-75
2021/01/19 15:00:22;;;;;;;18.73;11.38;;;;;;;3.91;66.65;98705.77;259241;1106;114813;-75
2021/01/19 15:05:24;;;;;;;21.27;11.07;;;;;;;3.88;66.26;98698.84;259266;1106;115034;-75
2021/01/19 15:10:27;;;;;;;20.87;11.27;;;;;;;3.83;66.52;98692.90;259267;1105;115345;-75
2021/01/19 15:15:29;;;;;;;18.67;10.55;;;;;;;3.78;65.75;98684.34;259146;1105;114943;-75
2021/01/19 15:20:33;;;;;;;21.90;11.70;;;;;;;3.77;65.79;98678.23;259239;1105;115144;-76
2021/01/19 15:25:35;;;;;;;18.60;10.97;;;;;;;3.85;66.12;98677.06;259307;1108;114758;-73
2021/01/19 15:30:38;;;;;;;16.90;10.63;;;;;;;3.89;65.79;98682.13;259373;1105;115098;-73
2021/01/19 15:35:40;;;;;;;16.93;9.97;;;;;;;3.90;65.99;98672.45;259332;1106;115173;-72
2021/01/19 15:40:42;;;;;;;18.23;10.43;;;;;;;3.93;66.55;98667.06;259500;1105;114639;-74
2021/01/19 15:45:44;;;;;;;18.03;10.77;;;;;;;3.96;65.65;98669.57;258454;1105;115224;-72
2021/01/19 15:50:46;;;;;;;15.05;9.80;;;;;;;3.90;65.45;98662.77;259347;1105;115214;-71
2021/01/19 15:55:49;;;;;;;18.43;10.83;;;;;;;3.85;65.59;98661.27;258490;1105;114878;-74
2021/01/19 16:00:51;;;;;;;17.47;10.47;;;;;;;3.79;65.30;98646.57;259246;1105;115007;-72
2021/01/19 16:05:59;;;;;;;20.90;12.50;;;;;;;3.77;65.72;98643.13;259342;1105;115050;-72
2021/01/19 16:11:01;;;;;;;22.20;12.07;;;;;;;3.75;65.41;98629.20;257977;1105;114928;-72
2021/01/19 16:16:03;;;;;;;22.03;12.40;;;;;;;3.65;65.54;98619.97;259115;1105;114955;-70
2021/01/19 16:21:12;;;;;;;22.43;12.20;;;;;;;3.61;65.80;98616.61;259258;1105;115198;-70
2021/01/19 16:26:26;;;;;;;24.17;14.00;;;;;;;3.51;65.57;98600.34;259140;1106;114796;-72
2021/01/19 16:31:32;;;;;;;34.58;17.80;;;;;;;3.48;65.78;98589.94;259351;1105;114921;-71
2021/01/19 16:36:38;;;;;;;38.60;20.43;;;;;;;3.43;66.26;98586.66;259164;1105;115510;-72
2021/01/19 16:41:43;;;;;;;46.85;23.15;;;;;;;3.39;66.38;98571.03;259406;1105;115052;-72
2021/01/19 16:46:47;;;;;;;44.10;23.45;;;;;;;3.45;66.09;98561.13;259262;1105;114878;-71
2021/01/19 16:51:49;;;;;;;42.58;23.35;;;;;;;3.52;65.89;98557.32;258121;1105;115030;-72
2021/01/19 16:56:52;;;;;;;50.08;25.57;;;;;;;3.58;66.29;98548.33;259217;1105;114893;-72
2021/01/19 17:01:55;;;;;;;49.17;26.50;;;;;;;3.59;66.27;98536.02;259164;1105;114635;-72
2021/01/19 17:06:57;;;;;;;49.35;26.37;;;;;;;3.63;66.54;98524.45;259150;1105;114985;-73
2021/01/19 17:12:00;;;;;;;49.85;26.75;;;;;;;3.65;66.35;98519.98;257107;1105;115070;-70
2021/01/19 17:17:03;;;;;;;49.50;26.33;;;;;;;3.61;65.95;98518.41;258979;1105;114905;-72
2021/01/19 17:22:08;;;;;;;47.58;25.08;;;;;;;3.55;65.66;98494.06;259338;1106;115339;-72
2021/01/19 17:27:10;;;;;;;46.48;24.55;;;;;;;3.48;65.41;98494.39;258579;1105;114879;-73
2021/01/19 17:32:13;;;;;;;43.63;23.50;;;;;;;3.45;66.42;98486.63;259303;1106;115184;-72
2021/01/19 17:37:18;;;;;;;48.23;26.10;;;;;;;3.34;65.44;98481.82;259428;1106;114831;-72
2021/01/19 17:42:20;;;;;;;44.10;23.97;;;;;;;3.31;66.13;98471.42;259208;1106;115057;-72
2021/01/19 17:47:23;;;;;;;45.85;24.95;;;;;;;3.30;66.31;98478.47;259252;1105;115337;-71
2021/01/19 17:52:25;;;;;;;47.47;25.77;;;;;;;3.30;65.82;98469.73;259256;1105;114805;-71
2021/01/19 17:57:27;;;;;;;43.37;23.80;;;;;;;3.32;66.27;98465.23;259278;1106;114933;-75
2021/01/19 18:02:29;;;;;;;43.73;23.90;;;;;;;3.38;65.95;98458.88;259271;1105;114818;-72
2021/01/19 18:07:32;;;;;;;41.55;22.40;;;;;;;3.39;65.43;98461.43;257719;1105;114664;-76
2021/01/19 18:12:35;;;;;;;44.67;23.55;;;;;;;3.40;65.79;98459.69;259327;1105;114893;-72
2021/01/19 18:17:37;;;;;;;49.40;25.13;;;;;;;3.32;66.00;98467.87;259179;1105;114846;-71
2021/01/19 18:22:40;;;;;;;46.00;24.30;;;;;;;3.24;65.74;98460.31;259340;1106;115016;-74
2021/01/19 18:27:43;;;;;;;42.70;23.43;;;;;;;3.16;65.71;98459.78;258739;1105;114995;-75
2021/01/19 18:32:46;;;;;;;45.83;24.10;;;;;;;3.12;66.06;98467.84;259219;1105;114976;-73
2021/01/19 18:37:49;;;;;;;46.90;25.40;;;;;;;3.12;66.27;98468.69;259090;1105;115805;-72
2021/01/19 18:42:51;;;;;;;44.03;24.67;;;;;;;3.14;65.87;98458.12;259035;1105;115133;-72
2021/01/19 18:47:57;;;;;;;45.25;24.70;;;;;;;3.14;66.23;98458.98;259275;1105;114962;-73
2021/01/19 18:53:02;;;;;;;47.17;25.20;;;;;;;3.12;66.04;98465.21;259247;1105;114893;-72
2021/01/19 18:58:04;;;;;;;45.78;25.05;;;;;;;3.07;66.55;98461.00;258776;1105;116097;-73
2021/01/19 19:03:07;;;;;;;46.92;25.70;;;;;;;3.02;66.32;98462.98;259155;1105;115105;-73
2021/01/19 19:08:09;;;;;;;48.57;26.00;;;;;;;3.01;66.12;98460.40;259309;1109;114826;-73
2021/01/19 19:13:12;;;;;;;45.57;24.43;;;;;;;2.98;66.93;98469.26;259227;1106;114876;-73
2021/01/19 19:18:14;;;;;;;49.63;24.77;;;;;;;2.96;67.13;98465.86;259191;1109;114881;-73
2021/01/19 19:23:17;;;;;;;45.50;24.40;;;;;;;2.98;66.93;98469.26;259246;1105;114793;-72
2021/01/19 19:28:22;;;;;;;46.23;25.72;;;;;;;3.03;67.09;98469.94;259074;1105;115808;-72
2021/01/19 19:33:25;;;;;;;49.87;26.20;;;;;;;3.14;67.19;98463.39;259028;1109;114890;-73
2021/01/19 19:38:27;;;;;;;45.28;25.62;;;;;;;3.18;66.52;98459.70;259154;1105;116323;-72
2021/01/19 19:43:30;;;;;;;47.23;25.97;;;;;;;3.17;66.84;98458.00;259049;1105;115186;-73
2021/01/19 19:48:32;;;;;;;51.08;26.55;;;;;;;3.14;66.40;98451.09;259164;1109;115175;-72
2021/01/19 19:53:35;;;;;;;48.75;27.37;;;;;;;3.12;66.87;98441.55;259045;1105;114830;-71
2021/01/19 19:58:38;;;;;;;47.15;25.90;;;;;;;3.10;66.76;98443.41;259215;1105;114612;-71
2021/01/19 20:03:40;;;;;;;48.50;26.50;;;;;;;3.08;66.92;98449.56;258057;1105;114930;-80
2021/01/19 20:08:43;;;;;;;46.30;24.30;;;;;;;3.07;66.75;98447.86;257597;1108;115080;-77
2021/01/19 20:13:45;;;;;;;35.73;17.70;;;;;;;3.14;66.92;98447.62;259079;1109;114667;-83
2021/01/19 20:18:47;;;;;;;29.05;15.00;;;;;;;3.25;67.19;98440.98;258618;1106;114775;-82
2021/01/19 20:23:49;;;;;;;33.10;16.63;;;;;;;3.38;66.99;98433.43;258862;1105;115254;-77
2021/01/19 20:28:52;;;;;;;29.40;15.90;;;;;;;3.47;66.71;98430.41;258639;1105;114817;-84
2021/01/19 20:33:55;;;;;;;26.53;14.73;;;;;;;3.52;66.04;98428.42;259072;1106;114768;-85
2021/01/19 20:38:59;;;;;;;29.02;15.00;;;;;;;3.54;66.00;98428.38;259215;1105;115065;-85
2021/01/19 20:44:01;;;;;;;26.23;14.68;;;;;;;3.52;66.14;98432.83;259286;1105;114554;-84
2021/01/19 20:49:04;;;;;;;30.33;15.20;;;;;;;3.52;65.63;98425.80;259232;1108;114613;-84
2021/01/19 20:54:07;;;;;;;33.40;16.70;;;;;;;3.51;65.68;98431.13;259380;1106;115141;-78
2021/01/19 20:59:14;;;;;;;26.60;14.80;;;;;;;3.58;65.87;98432.58;259280;1105;114698;-78
2021/01/19 21:04:16;;;;;;;24.23;12.03;;;;;;;3.62;65.28;98435.92;258899;1106;115514;-84
2021/01/19 21:09:18;;;;;;;21.65;10.28;;;;;;;3.69;65.38;98434.73;259311;1105;114646;-85
2021/01/19 21:14:21;;;;;;;18.23;9.23;;;;;;;3.78;65.43;98439.59;257468;1105;115122;-84
2021/01/19 21:19:24;;;;;;;11.67;6.80;;;;;;;3.86;65.54;98436.62;259364;1105;114521;-82
2021/01/19 21:24:27;;;;;;;11.12;5.95;;;;;;;3.89;64.82;98420.69;256614;1105;114828;-84
2021/01/19 21:29:30;;;;;;;11.30;6.23;;;;;;;3.95;65.30;98431.80;257907;1105;114683;-84
2021/01/19 21:34:32;;;;;;;10.58;5.92;;;;;;;3.95;64.95;98423.91;259330;1105;114539;-83
2021/01/19 21:39:34;;;;;;;9.63;5.40;;;;;;;4.01;64.42;98428.90;259290;1105;114613;-83
2021/01/19 21:44:37;;;;;;;10.78;5.17;;;;;;;3.98;64.25;98431.67;259349;1105;114495;-84
2021/01/19 21:49:41;;;;;;;12.83;6.20;;;;;;;3.96;64.44;98428.23;259365;1105;114650;-84
2021/01/19 21:54:44;;;;;;;11.23;6.17;;;;;;;3.93;64.95;98428.37;259112;1109;114961;-84
2021/01/19 21:59:47;;;;;;;10.48;6.35;;;;;;;3.95;64.96;98433.59;258330;1105;114889;-83
2021/01/19 22:04:49;;;;;;;11.97;6.97;;;;;;;3.98;64.89;98431.67;259008;1105;114706;-82
2021/01/19 22:10:10;;;;;;;12.75;7.28;;;;;;;3.94;64.16;98422.20;259292;1106;114834;-82
2021/01/19 22:15:13;;;;;;;10.93;6.67;;;;;;;3.92;64.02;98426.67;259284;1105;114253;-81
2021/01/19 22:20:15;;;;;;;13.85;7.70;;;;;;;3.91;64.42;98424.97;258911;1105;114501;-84
2021/01/19 22:25:17;;;;;;;15.55;8.20;;;;;;;3.88;64.90;98418.99;258791;1108;114612;-84
2021/01/19 22:33:48;;;;;;;17.80;7.78;;;;;;;3.79;64.87;98405.30;264660;1090;101999;-71
2021/01/19 22:39:05;;;;;;;12.68;7.55;;;;;;;3.78;64.92;98402.76;263513;1093;115170;-69
2021/01/19 22:44:14;;;;;;;14.70;8.25;;;;;;;3.76;64.44;98412.48;263419;1093;114259;-71
2021/01/19 22:49:30;;;;;;;13.83;8.25;;;;;;;3.75;65.08;98409.00;263699;1093;114257;-68
2021/01/19 22:54:52;;;;;;;11.88;7.20;;;;;;;3.72;64.44;98408.29;264078;1092;114598;-70
2021/01/19 22:59:55;;;;;;;16.12;7.80;;;;;;;3.73;65.22;98413.47;263129;1092;113859;-68
2021/01/19 23:04:57;;;;;;;15.03;8.58;;;;;;;3.75;65.24;98416.05;263202;1093;114493;-68